Time;durP1;ratioP1;P1;durP2;ratioP2;P2;SDS_P1;SDS_P2;PMS_P1;PMS_P2;Temp;Humidity;BMP_temperature;BMP_pressure;BME280_temperature;BME280_humidity;BME280_pressure;Samples;Min_cycle;Max_cycle;Signal;HPM_P1;HPM_P2
2022/02/11 00:00:50;;;;;;;7.28;1.90;;;;;;;4.85;77.53;102085.28;5056140;28;20029;-42
2022/02/11 00:06:35;;;;;;;11.77;1.90;;;;;;;4.87;77.37;102080.84;5056331;28;20514;-42
2022/02/11 00:09:01;;;;;;;13.93;1.88;;;;;;;4.94;77.39;102074.31;5055718;28;20045;-43
2022/02/11 00:11:32;;;;;;;9.98;1.80;;;;;;;4.88;77.66;102068.84;5055681;28;20061;-42
2022/02/11 00:13:57;;;;;;;7.95;1.65;;;;;;;4.94;77.12;102068.38;5055910;28;20021;-42
2022/02/11 00:16:23;;;;;;;15.10;2.15;;;;;;;5.02;78.40;102076.28;5055586;28;20108;-41
2022/02/11 00:18:48;;;;;;;19.65;2.42;;;;;;;5.06;76.66;102074.31;5055268;28;20049;-42
2022/02/11 00:21:13;;;;;;;11.23;2.20;;;;;;;5.15;78.33;102073.59;5055700;28;20032;-42
2022/02/11 00:23:39;;;;;;;13.32;1.90;;;;;;;5.26;76.36;102073.56;5055405;28;20492;-42
2022/02/11 00:26:06;;;;;;;9.43;2.20;;;;;;;5.33;76.22;102077.28;5055616;28;20032;-42
2022/02/11 00:33:45;;;;;;;15.45;2.38;;;;;;;5.38;76.25;102075.19;5055481;28;20104;-42
2022/02/11 00:36:12;;;;;;;14.10;2.65;;;;;;;5.38;77.64;102061.53;5055461;28;20117;-46
2022/02/11 00:39:08;;;;;;;13.93;2.25;;;;;;;5.33;76.30;102067.03;5055029;28;20028;-42
2022/02/11 01:05:50;;;;;;;9.45;2.60;;;;;;;4.98;78.66;102011.69;5054873;28;20037;-41
2022/02/11 01:08:15;;;;;;;14.63;2.88;;;;;;;4.98;78.68;102018.56;5054780;28;20021;-42
2022/02/11 01:10:40;;;;;;;11.20;2.10;;;;;;;4.94;78.82;102015.41;5054433;28;20099;-42
2022/02/11 01:13:06;;;;;;;9.45;2.40;;;;;;;5.20;78.95;102033.03;5054975;28;20079;-41
2022/02/11 01:15:34;;;;;;;13.90;2.40;;;;;;;5.23;78.42;102035.34;5054679;28;20019;-42
2022/02/11 01:18:01;;;;;;;15.40;2.50;;;;;;;5.27;78.62;102031.63;5054088;28;20414;-42
2022/02/11 01:20:41;;;;;;;17.95;3.17;;;;;;;5.36;78.74;102037.78;5054803;28;20092;-41
2022/02/11 01:26:10;;;;;;;14.18;2.15;;;;;;;5.19;83.10;102047.59;5054498;28;20067;-42
2022/02/11 01:31:35;;;;;;;11.00;2.83;;;;;;;4.91;85.44;102053.25;5054104;28;20564;-41
2022/02/11 01:34:56;;;;;;;17.85;2.67;;;;;;;4.97;86.58;102063.03;5054368;28;20352;-41
2022/02/11 01:37:04;;;;;;;11.15;2.58;;;;;;;4.89;86.41;102065.34;5053335;28;20021;-41
2022/02/11 01:48:07;;;;;;;10.75;2.03;;;;;;;4.59;89.44;102065.97;5054681;28;20041;-42
2022/02/11 01:56:08;;;;;;;10.05;2.00;;;;;;;4.58;89.74;102059.22;5054055;28;20383;-42
2022/02/11 02:26:50;;;;;;;26.85;3.35;;;;;;;4.97;88.89;102051.03;5053466;28;20098;-42
2022/02/11 02:34:39;;;;;;;18.27;2.47;;;;;;;5.05;87.67;102053.00;5053516;28;20025;-42
2022/02/11 02:50:48;;;;;;;18.92;2.60;;;;;;;5.26;87.35;102076.13;5054598;28;20433;-42
2022/02/11 02:58:58;;;;;;;17.33;2.33;;;;;;;5.00;89.34;102080.72;5057618;28;20059;-42
2022/02/11 03:57:55;;;;;;;17.40;2.20;;;;;;;4.67;86.72;102143.03;5056172;28;20033;-42
2022/02/11 04:20:18;;;;;;;19.50;2.25;;;;;;;4.85;86.72;102174.91;5056293;28;20536;-41
2022/02/11 04:26:09;;;;;;;22.15;2.47;;;;;;;4.91;88.03;102183.91;5055858;28;20044;-42
2022/02/11 04:55:22;;;;;;;23.88;2.70;;;;;;;4.66;90.53;102277.09;5055180;28;20036;-42
2022/02/11 05:00:31;;;;;;;23.35;2.75;;;;;;;4.72;88.60;102269.78;5055325;28;20039;-43
2022/02/11 05:02:57;;;;;;;19.23;2.78;;;;;;;4.84;88.34;102274.94;5054637;28;20017;-42
2022/02/11 05:05:23;;;;;;;21.95;2.92;;;;;;;4.82;87.00;102280.16;5054911;28;20112;-42
2022/02/11 05:07:49;;;;;;;16.77;2.60;;;;;;;4.87;87.34;102301.16;5054474;28;20471;-42
2022/02/11 05:10:14;;;;;;;19.08;3.08;;;;;;;4.85;87.14;102308.13;5054530;28;20029;-45
2022/02/11 05:12:42;;;;;;;16.95;2.03;;;;;;;4.81;87.41;102319.53;5054365;28;20040;-42
2022/02/11 05:15:10;;;;;;;18.77;2.65;;;;;;;4.70;88.38;102322.06;5053196;28;20065;-42
2022/02/11 05:17:37;;;;;;;14.38;2.22;;;;;;;4.59;88.68;102332.25;5054373;28;20056;-42
2022/02/11 05:20:03;;;;;;;18.17;2.58;;;;;;;4.53;87.17;102334.31;5054235;28;20060;-42
2022/02/11 05:22:29;;;;;;;15.63;2.55;;;;;;;4.53;87.25;102334.31;5054535;28;20120;-43
2022/02/11 05:24:54;;;;;;;18.95;2.38;;;;;;;4.54;86.18;102347.91;5054301;28;20438;-42
2022/02/11 05:27:19;;;;;;;16.50;3.10;;;;;;;4.62;85.61;102344.81;5054508;28;20074;-43
2022/02/11 05:29:45;;;;;;;16.48;2.58;;;;;;;4.47;85.10;102311.72;5055108;28;20020;-43
2022/02/11 05:32:10;;;;;;;24.63;3.55;;;;;;;4.67;85.90;102353.81;5054306;28;20025;-42
2022/02/11 05:34:35;;;;;;;16.08;2.40;;;;;;;4.73;84.73;102355.94;5054030;28;20426;-43
2022/02/11 05:37:00;;;;;;;23.63;2.95;;;;;;;4.73;84.70;102366.19;5054472;28;20112;-42
2022/02/11 05:39:26;;;;;;;24.10;3.10;;;;;;;4.71;84.48;102377.44;5053921;28;20021;-42
2022/02/11 05:41:51;;;;;;;14.48;2.65;;;;;;;4.74;84.72;102370.34;5054231;28;20383;-42
2022/02/11 05:44:16;;;;;;;15.25;2.08;;;;;;;4.68;84.28;102388.72;5053810;28;20053;-43
2022/02/11 05:46:41;;;;;;;12.73;2.03;;;;;;;4.65;83.03;102391.50;5053796;28;20017;-43
2022/02/11 05:49:07;;;;;;;19.33;2.00;;;;;;;4.53;83.25;102392.38;5053795;28;20021;-43
2022/02/11 05:51:32;;;;;;;11.68;1.90;;;;;;;4.53;83.36;102402.63;5054308;28;20083;-42
2022/02/11 05:53:57;;;;;;;13.82;2.50;;;;;;;4.50;83.50;102413.91;5053983;28;20024;-43
2022/02/11 05:56:22;;;;;;;18.42;2.40;;;;;;;4.49;81.96;102414.03;5053642;28;20072;-43
2022/02/11 05:58:48;;;;;;;8.27;1.65;;;;;;;4.52;82.29;102424.84;5053420;28;20036;-42
2022/02/11 06:01:13;;;;;;;14.55;2.08;;;;;;;4.49;81.18;102430.19;5054368;28;20033;-43
2022/02/11 06:03:38;;;;;;;9.48;1.77;;;;;;;4.45;82.78;102436.44;5053692;28;20090;-42
2022/02/11 06:06:03;;;;;;;7.30;1.92;;;;;;;4.47;82.60;102441.47;5053459;28;20012;-42
2022/02/11 06:08:29;;;;;;;12.18;2.20;;;;;;;4.46;83.26;102440.66;5053415;28;20482;-43
2022/02/11 06:10:54;;;;;;;15.23;1.88;;;;;;;4.48;83.22;102448.19;5053402;28;20025;-42
2022/02/11 06:13:19;;;;;;;12.70;1.95;;;;;;;4.41;83.10;102447.00;5053402;28;20029;-43
2022/02/11 06:15:45;;;;;;;9.13;1.63;;;;;;;4.14;83.14;102421.53;5053236;28;20024;-42
2022/02/11 06:18:11;;;;;;;16.80;1.95;;;;;;;4.27;83.12;102455.63;5053075;28;20056;-43
2022/02/11 06:20:37;;;;;;;9.73;1.70;;;;;;;4.21;83.56;102469.66;5053577;28;20056;-41
2022/02/11 06:23:02;;;;;;;13.68;2.25;;;;;;;4.21;84.13;102471.41;5053258;28;20031;-42
2022/02/11 06:25:28;;;;;;;13.48;1.90;;;;;;;4.05;84.36;102469.84;5053358;28;20090;-43
2022/02/11 06:27:53;;;;;;;15.20;2.45;;;;;;;4.05;85.13;102477.53;5054270;28;20108;-42
2022/02/11 06:30:19;;;;;;;10.23;1.73;;;;;;;4.11;84.78;102480.59;5053156;28;20449;-42
2022/02/11 06:32:44;;;;;;;11.63;1.80;;;;;;;4.00;84.83;102486.41;5053321;28;20029;-43
2022/02/11 06:35:13;;;;;;;11.73;2.30;;;;;;;4.02;84.41;102494.81;5053084;28;20023;-42
2022/02/11 06:37:42;;;;;;;19.58;2.80;;;;;;;3.97;85.46;102497.72;5053361;28;20475;-42
2022/02/11 06:40:10;;;;;;;17.25;2.40;;;;;;;3.96;84.65;102510.59;5053280;28;20076;-42
2022/02/11 06:42:35;;;;;;;11.18;2.15;;;;;;;4.01;84.71;102506.81;5053533;28;20032;-42
2022/02/11 06:45:02;;;;;;;17.35;2.55;;;;;;;4.06;83.93;102516.75;5053338;28;20379;-42
2022/02/11 06:47:28;;;;;;;13.55;2.45;;;;;;;3.98;83.78;102509.56;5053301;28;20032;-41
2022/02/11 06:49:53;;;;;;;18.77;2.72;;;;;;;4.07;84.31;102526.03;5053199;28;20033;-43
2022/02/11 06:52:19;;;;;;;19.38;3.63;;;;;;;4.16;83.82;102529.72;5053278;28;20048;-43
2022/02/11 06:54:44;;;;;;;19.27;3.22;;;;;;;4.14;83.30;102534.13;5052972;28;20386;-42
2022/02/11 06:57:09;;;;;;;18.77;2.80;;;;;;;4.30;83.92;102548.38;5053013;28;20083;-42
2022/02/11 06:59:35;;;;;;;27.58;8.23;;;;;;;4.22;83.86;102554.91;5052801;28;20017;-43
2022/02/11 07:02:00;;;;;;;23.90;5.45;;;;;;;4.26;84.71;102564.03;5053077;28;20429;-42
2022/02/11 07:04:26;;;;;;;19.33;3.03;;;;;;;4.34;83.61;102566.06;5052101;28;20333;-42
2022/02/11 07:06:51;;;;;;;19.92;2.80;;;;;;;4.37;84.09;102576.91;5051880;28;20111;-42
2022/02/11 07:09:17;;;;;;;26.60;3.00;;;;;;;4.27;83.71;102581.03;5053273;28;20025;-41
2022/02/11 07:11:42;;;;;;;20.13;2.80;;;;;;;4.33;83.32;102580.63;5052981;28;20025;-42
2022/02/11 07:14:07;;;;;;;20.88;2.88;;;;;;;4.36;82.54;102588.09;5053234;28;20403;-44
2022/02/11 07:16:32;;;;;;;21.08;3.50;;;;;;;4.51;82.71;102597.31;5053140;28;20082;-43
2022/02/11 07:18:58;;;;;;;23.15;3.00;;;;;;;4.60;82.52;102600.16;5052487;28;20041;-42
2022/02/11 07:21:23;;;;;;;17.38;3.78;;;;;;;4.60;82.03;102600.97;5051322;28;20025;-42
2022/02/11 07:23:49;;;;;;;29.05;3.13;;;;;;;4.56;83.33;102614.13;5052682;28;20025;-43
2022/02/11 07:26:14;;;;;;;19.95;2.78;;;;;;;4.49;84.77;102614.53;5053041;28;20024;-43
2022/02/11 07:28:39;;;;;;;19.02;3.45;;;;;;;4.43;84.10;102617.50;5052102;28;20028;-42
2022/02/11 07:31:04;;;;;;;26.80;3.30;;;;;;;4.44;83.02;102618.31;5051365;28;20120;-44
2022/02/11 07:33:30;;;;;;;20.02;3.72;;;;;;;4.40;84.23;102630.50;5052707;28;20033;-43
2022/02/11 07:35:56;;;;;;;20.45;2.90;;;;;;;4.26;84.21;102648.50;5053319;28;20029;-43
2022/02/11 07:38:21;;;;;;;19.98;2.72;;;;;;;4.36;83.94;102643.59;5054636;28;20032;-45
2022/02/11 07:40:47;;;;;;;20.52;3.35;;;;;;;4.42;84.04;102646.56;5056459;28;20020;-42
2022/02/11 07:43:12;;;;;;;25.95;3.38;;;;;;;4.50;82.49;102654.56;5054878;28;20086;-43
2022/02/11 07:45:38;;;;;;;20.67;3.17;;;;;;;4.55;83.02;102658.56;5056232;28;20395;-43
2022/02/11 07:48:03;;;;;;;15.88;3.35;;;;;;;4.56;83.00;102667.88;5056882;28;20029;-40
2022/02/11 07:50:29;;;;;;;26.48;2.88;;;;;;;4.68;82.72;102679.88;5054656;28;20071;-42
2022/02/11 07:52:56;;;;;;;19.02;2.83;;;;;;;4.79;80.01;102669.72;5054682;28;20368;-43
2022/02/11 07:55:21;;;;;;;17.25;2.60;;;;;;;4.66;80.06;102681.72;5056240;28;20025;-43
2022/02/11 07:57:46;;;;;;;25.88;2.95;;;;;;;4.63;81.95;102682.75;5055879;28;20117;-43
2022/02/11 08:00:14;;;;;;;20.58;3.03;;;;;;;4.62;81.77;102688.78;5056533;28;20021;-40
2022/02/11 08:02:39;;;;;;;25.58;3.28;;;;;;;4.57;82.33;102701.06;5056043;28;20025;-41
2022/02/11 08:05:05;;;;;;;23.38;3.10;;;;;;;4.43;82.41;102703.69;5055559;28;20468;-41
2022/02/11 08:07:30;;;;;;;23.52;3.15;;;;;;;4.63;82.04;102713.50;5055887;28;20033;-43
2022/02/11 08:09:55;;;;;;;26.40;3.85;;;;;;;5.84;77.82;102725.75;5054413;28;20021;-43
2022/02/11 08:12:20;;;;;;;22.88;3.80;;;;;;;7.11;72.15;102725.94;5055549;28;20028;-43
2022/02/11 08:14:46;;;;;;;22.70;3.20;;;;;;;6.82;73.71;102735.00;5055626;28;20372;-42
2022/02/11 08:17:11;;;;;;;28.60;4.25;;;;;;;8.12;69.28;102740.41;5055516;28;20053;-43
2022/02/11 08:19:36;;;;;;;22.13;3.42;;;;;;;8.32;67.13;102749.91;5055818;28;20024;-42
2022/02/11 08:22:02;;;;;;;21.33;3.63;;;;;;;8.46;68.27;102753.97;5055442;28;20425;-42
2022/02/11 08:24:27;;;;;;;19.00;3.58;;;;;;;7.50;69.30;102759.81;5055490;28;20028;-43
2022/02/11 08:26:52;;;;;;;25.52;3.90;;;;;;;7.76;68.55;102767.28;5055314;28;20456;-43
2022/02/11 08:29:22;;;;;;;26.13;5.10;;;;;;;8.75;66.44;102769.63;5055209;28;20032;-42
2022/02/11 08:31:48;;;;;;;23.80;4.07;;;;;;;8.00;66.94;102769.66;5055629;28;20493;-43
2022/02/11 08:34:13;;;;;;;19.55;4.63;;;;;;;6.83;71.89;102782.91;5055250;28;20100;-41
2022/02/11 08:36:39;;;;;;;22.00;4.53;;;;;;;6.45;74.40;102791.66;5055090;28;20063;-40
2022/02/11 08:39:04;;;;;;;18.95;3.20;;;;;;;6.52;73.81;102808.25;5055237;28;20422;-41
2022/02/11 08:41:29;;;;;;;24.58;3.42;;;;;;;6.86;72.21;102808.38;5055353;28;20089;-41
2022/02/11 08:43:54;;;;;;;21.02;3.63;;;;;;;6.68;72.54;102813.94;5055360;28;20162;-42
2022/02/11 08:46:21;;;;;;;29.42;3.78;;;;;;;6.44;74.18;102825.97;5054782;28;20028;-42
2022/02/11 08:48:48;;;;;;;18.17;3.42;;;;;;;6.62;70.72;102832.38;5054714;28;20460;-42
2022/02/11 08:51:13;;;;;;;22.38;3.45;;;;;;;6.80;69.83;102845.63;5054957;28;20055;-42
2022/02/11 08:53:39;;;;;;;17.40;2.78;;;;;;;6.68;64.78;102847.34;5054622;28;20028;-41
2022/02/11 08:56:06;;;;;;;16.88;2.92;;;;;;;6.85;61.86;102856.41;5055159;28;20127;-42
2022/02/11 08:58:32;;;;;;;17.38;2.45;;;;;;;6.57;64.29;102859.31;5054167;28;20471;-41
2022/02/11 09:00:57;;;;;;;20.60;3.03;;;;;;;6.60;62.65;102864.22;5054794;28;20105;-41
2022/02/11 09:03:22;;;;;;;21.27;2.88;;;;;;;6.68;60.79;102883.31;5053964;28;20029;-40
2022/02/11 09:05:48;;;;;;;13.95;2.53;;;;;;;6.70;61.83;102885.75;5054627;28;20032;-42
2022/02/11 09:08:13;;;;;;;15.05;2.33;;;;;;;6.30;61.89;102893.69;5054789;28;20395;-43
2022/02/11 09:10:39;;;;;;;12.32;2.50;;;;;;;6.43;60.36;102899.63;5054616;28;20028;-42
2022/02/11 09:13:05;;;;;;;14.30;2.13;;;;;;;6.71;61.26;102903.66;5054629;28;20025;-42
2022/02/11 09:15:30;;;;;;;17.92;2.28;;;;;;;7.30;60.83;102899.41;5053103;28;20051;-44
2022/02/11 09:17:56;;;;;;;14.57;2.60;;;;;;;8.23;57.63;102892.31;5054220;28;20075;-43
2022/02/11 09:20:23;;;;;;;14.20;2.03;;;;;;;10.53;49.12;102887.94;5053123;28;20109;-42
2022/02/11 09:22:50;;;;;;;14.30;2.63;;;;;;;8.20;56.19;102899.44;5054396;28;20365;-42
2022/02/11 09:25:16;;;;;;;14.93;2.20;;;;;;;10.93;48.55;102915.44;5052842;28;20107;-42
2022/02/11 09:27:45;;;;;;;14.15;2.30;;;;;;;10.13;49.75;102901.75;5052090;28;20117;-41
2022/02/11 09:30:19;;;;;;;17.05;2.45;;;;;;;9.55;51.04;102922.16;5051681;28;20025;-43
2022/02/11 09:32:46;;;;;;;14.10;2.08;;;;;;;10.59;49.53;102910.69;5053388;28;20062;-42
2022/02/11 09:35:14;;;;;;;17.60;3.00;;;;;;;9.99;50.22;102931.34;5052038;28;20454;-42
2022/02/11 09:37:41;;;;;;;12.20;2.40;;;;;;;9.05;50.97;102912.47;5052300;28;20387;-42
2022/02/11 09:40:10;;;;;;;11.65;2.22;;;;;;;7.11;55.84;102916.19;5053535;28;20025;-41
2022/02/11 09:42:36;;;;;;;17.45;2.70;;;;;;;7.07;57.01;102955.09;5052782;28;20426;-45
2022/02/11 09:45:04;;;;;;;17.05;2.70;;;;;;;7.01;57.33;102952.03;5053769;28;20064;-44
2022/02/11 09:47:29;;;;;;;24.52;2.58;;;;;;;6.63;61.75;102957.31;5053831;28;20032;-43
2022/02/11 09:49:56;;;;;;;15.32;2.25;;;;;;;6.23;62.73;102934.41;5054451;28;20333;-42
2022/02/11 09:52:21;;;;;;;20.02;2.50;;;;;;;6.25;62.84;102958.22;5036268;28;20032;-41
2022/02/11 09:54:47;;;;;;;13.88;2.47;;;;;;;6.37;61.90;102961.69;5053778;28;20310;-43
2022/02/11 09:57:19;;;;;;;15.32;2.58;;;;;;;7.05;59.10;102978.34;5052226;28;20036;-43
2022/02/11 09:59:45;;;;;;;17.63;2.38;;;;;;;7.38;60.16;102982.78;5052828;28;20368;-41
2022/02/11 10:02:16;;;;;;;17.08;2.15;;;;;;;8.10;58.53;102977.41;5052674;28;20044;-43
2022/02/11 10:04:55;;;;;;;15.95;2.30;;;;;;;7.78;56.47;102994.47;5053800;28;20379;-43
2022/02/11 10:07:21;;;;;;;16.73;2.17;;;;;;;7.65;56.68;102995.41;5053195;28;20016;-43
2022/02/11 10:09:48;;;;;;;21.45;2.97;;;;;;;11.30;47.49;102986.25;5053918;28;20100;-43
2022/02/11 10:12:13;;;;;;;15.27;2.25;;;;;;;13.07;44.36;103013.91;5054290;28;20043;-44
2022/02/11 10:14:41;;;;;;;11.93;2.40;;;;;;;15.65;38.31;103011.75;5053978;28;20025;-42
2022/02/11 10:17:09;;;;;;;16.80;2.33;;;;;;;16.43;35.27;103018.00;5053636;28;20513;-43
2022/02/11 10:19:42;;;;;;;16.90;2.70;;;;;;;16.79;32.77;103015.69;5053584;28;20111;-43
2022/02/11 10:22:26;;;;;;;18.25;2.75;;;;;;;16.90;34.52;103007.44;5053266;28;20053;-45
2022/02/11 10:24:54;;;;;;;13.20;2.90;;;;;;;18.51;31.07;103011.31;5053594;28;20032;-44
2022/02/11 10:27:24;;;;;;;15.93;2.95;;;;;;;19.56;29.82;103018.47;5052015;28;20497;-43
2022/02/11 10:29:55;;;;;;;16.15;2.92;;;;;;;17.32;32.52;103023.59;5053901;28;20021;-42
2022/02/11 10:32:57;;;;;;;13.50;2.67;;;;;;;17.60;30.17;103022.00;5053423;28;20021;-45
2022/02/11 10:35:26;;;;;;;12.98;2.70;;;;;;;19.47;28.68;103021.41;5052862;28;20121;-43
2022/02/11 10:38:08;;;;;;;13.80;2.70;;;;;;;19.13;29.16;103036.06;5052933;28;20130;-44
2022/02/11 10:40:35;;;;;;;13.27;2.50;;;;;;;18.98;28.89;103035.34;5053135;28;20083;-43
2022/02/11 10:43:00;;;;;;;9.95;2.13;;;;;;;20.77;24.91;103048.66;5051947;28;20108;-43
2022/02/11 10:45:28;;;;;;;16.42;2.80;;;;;;;21.26;24.26;103047.44;5052223;28;20121;-43
2022/02/11 10:48:15;;;;;;;7.95;2.42;;;;;;;19.47;27.96;103045.00;5052564;28;20017;-41
2022/02/11 10:50:45;;;;;;;14.40;2.55;;;;;;;16.63;31.58;103053.13;5052183;28;20044;-42
2022/02/11 10:53:19;;;;;;;12.80;2.78;;;;;;;13.21;39.64;103059.28;5052125;28;20021;-41
2022/02/11 10:55:51;;;;;;;13.80;2.42;;;;;;;10.95;41.03;103061.00;5052444;28;20041;-42
2022/02/11 10:58:20;;;;;;;16.47;3.07;;;;;;;9.86;45.83;103076.16;5052494;28;20395;-42
2022/02/11 11:00:46;;;;;;;13.90;2.50;;;;;;;9.42;47.10;103082.38;5051949;28;20076;-42
2022/02/11 11:03:12;;;;;;;10.43;2.50;;;;;;;8.88;49.10;103084.00;5051790;28;20440;-41
2022/02/11 11:05:42;;;;;;;10.90;2.17;;;;;;;8.85;47.07;103083.44;5051802;28;20075;-41
2022/02/11 11:08:10;;;;;;;9.80;2.60;;;;;;;8.72;51.90;103092.13;5051579;28;20025;-43
2022/02/11 11:10:40;;;;;;;13.23;2.25;;;;;;;8.68;49.88;103090.69;5051540;28;20032;-42
2022/02/11 11:13:09;;;;;;;18.77;2.67;;;;;;;8.59;52.13;103086.25;5055134;28;20033;-43
2022/02/11 11:15:34;;;;;;;10.68;1.80;;;;;;;8.40;50.36;103093.72;5056580;28;20029;-41
2022/02/11 11:18:03;;;;;;;16.70;2.60;;;;;;;8.40;52.56;103089.44;5056738;28;20041;-40
2022/02/11 11:20:33;;;;;;;15.02;2.33;;;;;;;9.85;49.65;103099.53;5056611;28;20037;-43
2022/02/11 11:23:04;;;;;;;15.20;2.40;;;;;;;10.04;48.44;103098.84;5056654;28;20035;-42
2022/02/11 11:26:03;;;;;;;13.68;2.20;;;;;;;11.20;44.64;103101.91;5056674;28;20033;-42
2022/02/11 11:28:50;;;;;;;10.10;1.70;;;;;;;12.99;39.73;103105.47;5055872;28;20487;-42
2022/02/11 11:31:25;;;;;;;12.00;2.10;;;;;;;14.70;37.33;103102.50;5056577;28;20112;-43
2022/02/11 11:33:52;;;;;;;14.45;2.03;;;;;;;15.62;35.85;103094.66;5056880;28;20028;-43
2022/02/11 11:36:19;;;;;;;15.07;2.60;;;;;;;14.83;35.08;103105.47;5056192;28;20024;-44
2022/02/11 11:38:46;;;;;;;18.85;2.30;;;;;;;14.77;37.51;103111.31;5055830;28;20098;-42
2022/02/11 11:41:22;;;;;;;11.02;1.98;;;;;;;18.85;29.08;103109.41;5056320;28;20028;-42
2022/02/11 11:43:56;;;;;;;21.33;2.95;;;;;;;19.99;28.35;103102.25;5056670;28;20052;-42
2022/02/11 11:46:23;;;;;;;13.43;2.70;;;;;;;13.71;38.00;103119.31;5056367;28;20024;-42
2022/02/11 11:49:07;;;;;;;12.18;2.33;;;;;;;13.36;39.28;103111.56;5055824;28;20077;-42
2022/02/11 11:51:35;;;;;;;18.33;3.00;;;;;;;11.87;41.48;103115.03;5055884;28;20025;-43
2022/02/11 11:54:15;;;;;;;11.98;2.30;;;;;;;10.04;46.00;103109.16;5056258;28;20025;-43
2022/02/11 11:56:42;;;;;;;12.13;2.40;;;;;;;10.21;45.57;103111.19;5055889;28;20466;-43
2022/02/11 11:59:21;;;;;;;14.63;2.13;;;;;;;9.13;48.77;103133.69;5056017;28;20375;-43
2022/02/11 12:01:55;;;;;;;20.25;2.78;;;;;;;9.04;48.86;103122.34;5055730;28;20033;-41
2022/02/11 12:04:31;;;;;;;11.90;2.15;;;;;;;8.89;45.44;103128.66;5056394;28;20414;-43
2022/02/11 12:07:00;;;;;;;11.52;2.30;;;;;;;13.09;38.16;103139.16;5055877;28;20094;-42
2022/02/11 12:09:28;;;;;;;15.40;2.10;;;;;;;9.62;44.33;103124.66;5055483;28;20017;-43
2022/02/11 12:12:05;;;;;;;14.88;2.53;;;;;;;8.87;46.82;103133.94;5055679;28;20029;-42
2022/02/11 12:14:33;;;;;;;15.30;2.33;;;;;;;8.33;50.00;103139.72;5055406;28;20455;-43
2022/02/11 12:17:01;;;;;;;9.63;2.10;;;;;;;7.98;50.08;103138.00;5055389;28;20104;-43
2022/02/11 12:19:27;;;;;;;19.45;2.78;;;;;;;15.72;35.12;103137.84;5055848;28;20124;-43
2022/02/11 12:21:53;;;;;;;8.23;1.65;;;;;;;19.57;27.98;103139.91;5053890;28;20021;-43
2022/02/11 12:27:21;;;;;;;12.65;2.60;;;;;;;20.04;27.49;103141.88;5056040;28;20051;-43
2022/02/11 12:29:58;;;;;;;12.38;2.72;;;;;;;20.11;25.50;103147.19;5055670;28;20456;-42
2022/02/11 12:32:31;;;;;;;14.52;2.40;;;;;;;20.38;25.33;103152.56;5055214;28;20025;-44
2022/02/11 12:34:59;;;;;;;11.25;2.50;;;;;;;18.94;27.39;103137.91;5055507;28;20021;-42
2022/02/11 12:37:26;;;;;;;13.20;2.78;;;;;;;20.53;24.57;103147.19;5055453;28;20021;-44
2022/02/11 12:40:11;;;;;;;13.43;2.72;;;;;;;21.17;23.87;103152.00;5055556;28;20025;-43
2022/02/11 12:42:48;;;;;;;14.57;2.60;;;;;;;20.42;24.39;103154.59;5055290;28;20029;-43
2022/02/11 12:45:19;;;;;;;18.63;2.90;;;;;;;16.03;30.81;103150.22;5055629;28;20502;-43
2022/02/11 12:47:45;;;;;;;18.13;2.92;;;;;;;17.31;29.57;103150.84;5054988;28;20109;-49
2022/02/11 12:50:11;;;;;;;12.63;2.78;;;;;;;17.06;29.30;103150.19;5055512;28;20053;-43
2022/02/11 12:52:38;;;;;;;12.00;2.20;;;;;;;17.02;30.06;103155.94;5055416;28;20452;-44
2022/02/11 12:55:11;;;;;;;11.15;2.35;;;;;;;18.91;26.77;103147.97;5055309;28;20023;-43
2022/02/11 12:57:40;;;;;;;10.43;2.22;;;;;;;18.06;29.10;103156.28;5055755;28;20036;-43
2022/02/11 13:00:08;;;;;;;10.98;2.50;;;;;;;18.84;27.23;103155.72;5054113;28;20107;-43
2022/02/11 13:02:35;;;;;;;14.70;2.88;;;;;;;18.70;27.26;103157.38;5053330;28;20025;-43
2022/02/11 13:05:11;;;;;;;19.58;2.95;;;;;;;15.60;32.39;103161.78;5053248;28;20037;-42
2022/02/11 13:07:42;;;;;;;11.32;2.30;;;;;;;14.18;35.60;103163.19;5053414;28;20024;-42
2022/02/11 13:10:09;;;;;;;13.13;2.25;;;;;;;12.89;36.89;103159.22;5053423;28;20086;-44
2022/02/11 13:12:40;;;;;;;9.85;2.25;;;;;;;12.14;40.21;103163.53;5053957;28;20029;-43
2022/02/11 13:15:07;;;;;;;13.52;2.33;;;;;;;12.77;36.67;103166.34;5054515;28;20108;-44
2022/02/11 13:17:32;;;;;;;14.23;2.20;;;;;;;11.95;38.74;103154.03;5054535;28;20057;-43
2022/02/11 13:20:05;;;;;;;10.93;2.60;;;;;;;12.56;36.24;103153.59;5053536;28;20082;-43
2022/02/11 13:22:30;;;;;;;13.75;2.28;;;;;;;11.54;39.82;103145.56;5054671;28;20033;-44
2022/02/11 13:24:56;;;;;;;9.93;1.88;;;;;;;11.21;41.67;103141.53;5054161;28;20375;-43
2022/02/11 13:27:21;;;;;;;6.53;2.13;;;;;;;11.26;38.96;103157.50;5054452;28;20025;-42
2022/02/11 13:30:00;;;;;;;10.68;2.05;;;;;;;11.02;40.39;103155.28;5054307;28;20021;-43
2022/02/11 13:32:27;;;;;;;9.13;1.80;;;;;;;10.88;41.68;103163.38;5054736;28;20021;-42
2022/02/11 13:35:06;;;;;;;11.20;1.83;;;;;;;10.47;40.10;103165.09;5053550;28;20021;-42
2022/02/11 13:37:47;;;;;;;10.05;1.80;;;;;;;9.52;41.27;103172.78;5054045;28;20479;-43
2022/02/11 13:40:25;;;;;;;6.85;1.95;;;;;;;9.21;42.50;103175.19;5054236;28;20021;-41
2022/02/11 13:42:57;;;;;;;9.82;1.90;;;;;;;8.95;46.46;103182.38;5054349;28;20155;-43
2022/02/11 13:45:24;;;;;;;10.43;1.77;;;;;;;8.64;45.75;103179.53;5054235;28;20048;-40
2022/02/11 13:48:08;;;;;;;14.15;2.13;;;;;;;8.76;45.59;103188.91;5053759;28;20028;-47
2022/02/11 13:50:57;;;;;;;11.23;2.13;;;;;;;8.41;47.94;103186.41;5053975;28;20053;-42
2022/02/11 13:53:32;;;;;;;8.70;1.92;;;;;;;8.49;49.11;103181.50;5054099;28;20116;-43
2022/02/11 13:55:57;;;;;;;8.82;1.75;;;;;;;8.94;47.86;103189.25;5053667;28;20064;-42
2022/02/11 13:58:23;;;;;;;13.00;1.73;;;;;;;9.81;44.49;103185.94;5052727;28;20056;-41
2022/02/11 14:00:53;;;;;;;5.35;1.30;;;;;;;9.47;43.67;103183.47;5053389;28;20029;-43
2022/02/11 14:03:29;;;;;;;11.60;1.50;;;;;;;9.72;42.75;103184.91;5051985;28;20029;-42
2022/02/11 14:06:02;;;;;;;7.60;1.60;;;;;;;9.74;44.38;103188.19;5053913;28;20124;-43
2022/02/11 14:08:39;;;;;;;11.05;2.03;;;;;;;9.93;41.18;103203.88;5053512;28;20031;-41
2022/02/11 14:11:12;;;;;;;5.35;1.48;;;;;;;9.43;44.99;103202.72;5052490;28;20029;-42
2022/02/11 14:13:39;;;;;;;8.65;1.42;;;;;;;8.92;44.44;103209.19;5053690;28;20033;-42
2022/02/11 14:16:05;;;;;;;10.43;1.65;;;;;;;8.45;46.60;103200.69;5053206;28;20028;-42
2022/02/11 14:18:30;;;;;;;8.82;1.58;;;;;;;8.08;47.64;103200.75;5053010;28;20041;-42
2022/02/11 14:20:56;;;;;;;10.65;1.75;;;;;;;7.81;48.42;103201.00;5052962;28;20494;-41
2022/02/11 14:23:22;;;;;;;13.27;1.80;;;;;;;7.48;48.60;103188.78;5052879;28;20029;-43
2022/02/11 14:25:48;;;;;;;9.77;2.03;;;;;;;7.47;49.62;103220.56;5053675;28;20364;-42
2022/02/11 14:28:15;;;;;;;14.70;1.75;;;;;;;7.53;49.36;103229.63;5052208;28;20025;-43
2022/02/11 14:30:41;;;;;;;10.98;1.52;;;;;;;7.45;50.39;103220.69;5051949;28;20029;-43
2022/02/11 14:33:08;;;;;;;6.47;1.52;;;;;;;7.16;50.04;103222.69;5053674;28;20459;-42
2022/02/11 14:35:33;;;;;;;10.88;1.92;;;;;;;7.08;51.31;103206.13;5051838;28;20025;-43
2022/02/11 14:37:58;;;;;;;8.48;1.40;;;;;;;7.21;49.91;103225.75;5053108;28;20029;-41
2022/02/11 14:40:24;;;;;;;11.93;1.60;;;;;;;7.04;52.50;103223.50;5053053;28;20017;-41
2022/02/11 14:42:49;;;;;;;13.60;2.50;;;;;;;7.14;50.89;103224.53;5053057;28;20041;-43
2022/02/11 14:45:14;;;;;;;10.82;1.92;;;;;;;7.06;52.25;103226.00;5052956;28;20108;-41
2022/02/11 14:47:40;;;;;;;13.02;2.17;;;;;;;7.04;53.41;103227.84;5055986;28;20075;-43
2022/02/11 14:50:06;;;;;;;8.57;1.60;;;;;;;7.47;50.78;103229.09;5057364;28;20096;-42
2022/02/11 14:52:32;;;;;;;9.38;1.70;;;;;;;7.72;52.17;103236.88;5056815;28;20021;-43
2022/02/11 14:54:58;;;;;;;6.93;2.20;;;;;;;7.67;51.28;103235.44;5057281;28;20069;-42
2022/02/11 14:57:23;;;;;;;12.90;1.90;;;;;;;7.85;51.88;103242.78;5057209;28;20028;-43
2022/02/11 14:59:49;;;;;;;11.95;1.50;;;;;;;7.59;52.34;103240.28;5057097;28;20024;-42
2022/02/11 15:02:14;;;;;;;11.05;1.60;;;;;;;7.73;50.76;103241.09;5056508;28;20036;-44
2022/02/11 15:04:41;;;;;;;13.50;1.90;;;;;;;7.82;51.20;103230.13;5056651;28;20025;-42
2022/02/11 15:07:07;;;;;;;8.82;1.83;;;;;;;7.99;50.46;103234.09;5056601;28;20021;-42